createdAt,value
2016-11-17T00:00:33.463Z,0
2016-11-17T00:01:43.792Z,0
2016-11-17T00:02:54.229Z,0
2016-11-17T00:04:04.240Z,0
2016-11-17T00:05:14.578Z,0
2016-11-17T00:06:24.025Z,0
2016-11-17T00:07:34.356Z,0
2016-11-17T00:08:44.059Z,0
2016-11-17T00:09:54.560Z,0
2016-11-17T00:11:04.264Z,0
2016-11-17T00:12:14.409Z,0
2016-11-17T00:13:24.138Z,0
2016-11-17T00:14:34.514Z,0
2016-11-17T00:15:44.879Z,0
2016-11-17T00:16:55.223Z,0
2016-11-17T00:18:04.923Z,0
2016-11-17T00:19:14.941Z,0
2016-11-17T00:20:24.825Z,0
2016-11-17T00:21:34.872Z,0
2016-11-17T00:22:44.695Z,0
2016-11-17T00:23:54.887Z,0
2016-11-17T00:25:04.961Z,0
2016-11-17T00:26:15.130Z,0
2016-11-17T00:27:25.134Z,0
2016-11-17T00:28:34.890Z,0
2016-11-17T00:29:45.223Z,0
2016-11-17T00:30:55.296Z,0
2016-11-17T00:32:05.025Z,0
2016-11-17T00:33:15.093Z,0
2016-11-17T00:34:24.791Z,0
2016-11-17T00:35:34.613Z,0
2016-11-17T00:36:44.624Z,0
2016-11-17T00:37:54.338Z,0
2016-11-17T00:39:04.434Z,0
2016-11-17T00:40:14.754Z,0
2016-11-17T00:41:24.228Z,0
2016-11-17T00:42:34.642Z,0
2016-11-17T00:43:44.044Z,0
2016-11-17T00:44:54.423Z,0
2016-11-17T00:46:03.843Z,0
2016-11-17T00:47:13.843Z,0
2016-11-17T00:48:23.651Z,0
2016-11-17T00:49:33.674Z,0
2016-11-17T00:50:43.493Z,0
2016-11-17T00:51:53.533Z,0
2016-11-17T00:53:03.893Z,0
2016-11-17T00:54:13.973Z,0
2016-11-17T00:55:23.682Z,0
2016-11-17T00:56:33.431Z,0
2016-11-17T00:57:43.442Z,0
2016-11-17T00:58:53.811Z,0
2016-11-17T01:00:03.903Z,0
2016-11-17T01:01:13.928Z,0
2016-11-17T01:02:23.987Z,0
2016-11-17T01:03:33.999Z,0
2016-11-17T01:04:43.752Z,0
2016-11-17T01:05:53.606Z,0
2016-11-17T01:07:03.343Z,0
2016-11-17T01:08:13.063Z,0
2016-11-17T01:09:23.393Z,0
2016-11-17T01:10:33.730Z,0
2016-11-17T01:11:44.082Z,0
2016-11-17T01:12:53.784Z,0
2016-11-17T01:14:03.861Z,0
2016-11-17T01:15:13.554Z,0
2016-11-17T01:16:23.568Z,0
2016-11-17T01:17:33.948Z,0
2016-11-17T01:18:43.974Z,0
2016-11-17T01:19:53.783Z,0
2016-11-17T01:21:03.485Z,0
2016-11-17T01:22:13.591Z,0
2016-11-17T01:23:23.692Z,0
2016-11-17T01:24:33.410Z,0
2016-11-17T01:25:43.478Z,0
2016-11-17T01:26:53.176Z,0
2016-11-17T01:28:03.180Z,0
2016-11-17T01:29:12.887Z,0
2016-11-17T01:30:22.642Z,0
2016-11-17T01:31:32.661Z,0
2016-11-17T01:32:42.362Z,0
2016-11-17T01:33:52.477Z,0
2016-11-17T01:35:02.842Z,0
2016-11-17T01:36:12.559Z,0
2016-11-17T01:37:22.298Z,0
2016-11-17T01:38:32.011Z,0
2016-11-17T01:39:41.458Z,0
2016-11-17T01:40:51.793Z,0
2016-11-17T01:42:00.882Z,0
2016-11-17T01:43:11.257Z,0
2016-11-17T01:44:21.579Z,0
2016-11-17T01:45:31.612Z,0
2016-11-17T01:46:42.026Z,0
2016-11-17T01:47:51.727Z,0
2016-11-17T01:49:02.091Z,0
2016-11-17T01:50:12.141Z,0
2016-11-17T01:51:22.512Z,0
2016-11-17T01:52:32.841Z,0
2016-11-17T01:53:43.172Z,0
2016-11-17T01:54:53.175Z,0
2016-11-17T01:56:02.901Z,0
2016-11-17T01:57:12.679Z,0
2016-11-17T01:58:22.380Z,0
2016-11-17T01:59:32.421Z,0
2016-11-17T02:00:42.441Z,0
2016-11-17T02:01:52.551Z,0
2016-11-17T02:03:02.621Z,0
2016-11-17T02:04:12.642Z,0
2016-11-17T02:05:22.971Z,0
2016-11-17T02:06:33.000Z,0
2016-11-17T02:07:43.324Z,0
2016-11-17T02:08:53.402Z,0
2016-11-17T02:10:03.113Z,0
2016-11-17T02:11:12.962Z,0
2016-11-17T02:12:22.740Z,0
2016-11-17T02:13:32.490Z,0
2016-11-17T02:14:42.531Z,0
2016-11-17T02:15:52.410Z,0
2016-11-17T02:17:02.120Z,0
2016-11-17T02:18:11.826Z,0
2016-11-17T02:19:21.893Z,0
2016-11-17T02:20:31.911Z,0
2016-11-17T02:21:42.025Z,0
2016-11-17T02:22:51.424Z,0
2016-11-17T02:24:01.584Z,0
2016-11-17T02:25:10.978Z,0
2016-11-17T02:26:20.998Z,0
2016-11-17T02:27:30.747Z,0
2016-11-17T02:28:40.793Z,0
2016-11-17T02:29:50.912Z,0
2016-11-17T02:31:00.621Z,0
2016-11-17T02:32:10.612Z,0
2016-11-17T02:33:20.682Z,0
2016-11-17T02:34:30.517Z,0
2016-11-17T02:35:40.780Z,0
2016-11-17T02:36:51.082Z,0
2016-11-17T02:38:01.106Z,0
2016-11-17T02:39:10.846Z,0
2016-11-17T02:40:20.955Z,0
2016-11-17T02:41:30.684Z,0
2016-11-17T02:42:41.108Z,0
2016-11-17T02:43:51.180Z,0
2016-11-17T02:45:01.188Z,0
2016-11-17T02:46:10.893Z,0
2016-11-17T02:47:20.941Z,0
2016-11-17T02:48:30.968Z,0
2016-11-17T02:49:40.712Z,0
2016-11-17T02:50:51.144Z,0
2016-11-17T02:52:00.560Z,0
2016-11-17T02:53:10.964Z,0
2016-11-17T02:54:21.299Z,0
2016-11-17T02:55:31.366Z,0
2016-11-17T02:56:41.078Z,0
2016-11-17T02:57:51.153Z,0
2016-11-17T02:59:01.487Z,0
2016-11-17T03:00:10.862Z,0
2016-11-17T03:01:20.283Z,0
2016-11-17T03:02:30.618Z,0
2016-11-17T03:03:41.031Z,0
2016-11-17T03:04:51.140Z,0
2016-11-17T03:06:00.919Z,0
2016-11-17T03:07:10.951Z,0
2016-11-17T03:08:21.004Z,0
2016-11-17T03:09:31.061Z,0
2016-11-17T03:10:41.059Z,0
2016-11-17T03:11:51.065Z,0
2016-11-17T03:13:00.547Z,0
2016-11-17T03:14:10.862Z,0
2016-11-17T03:15:20.866Z,0
2016-11-17T03:16:30.885Z,0
2016-11-17T03:17:40.911Z,0
2016-11-17T03:18:51.021Z,0
2016-11-17T03:20:01.388Z,0
2016-11-17T03:21:10.782Z,0
2016-11-17T03:22:20.549Z,0
2016-11-17T03:23:30.620Z,0
2016-11-17T03:24:41.095Z,0
2016-11-17T03:25:51.088Z,0
2016-11-17T03:27:00.839Z,0
2016-11-17T03:28:10.548Z,0
2016-11-17T03:29:20.681Z,0
2016-11-17T03:30:30.699Z,0
2016-11-17T03:31:40.099Z,0
2016-11-17T03:32:50.105Z,0
2016-11-17T03:34:00.421Z,0
2016-11-17T03:35:10.109Z,0
2016-11-17T03:36:20.122Z,0
2016-11-17T03:37:29.772Z,0
2016-11-17T03:38:38.862Z,0
2016-11-17T03:39:48.867Z,0
2016-11-17T03:40:58.927Z,0
2016-11-17T03:42:08.708Z,0
2016-11-17T03:43:18.763Z,0
2016-11-17T03:44:28.180Z,0
2016-11-17T03:45:38.182Z,0
2016-11-17T03:46:47.962Z,0
2016-11-17T03:47:57.791Z,0
2016-11-17T03:49:07.812Z,0
2016-11-17T03:50:17.915Z,0
2016-11-17T03:51:28.225Z,0
2016-11-17T03:52:37.644Z,0
2016-11-17T03:53:47.717Z,0
2016-11-17T03:54:57.732Z,0
2016-11-17T03:56:07.210Z,0
2016-11-17T03:57:17.228Z,0
2016-11-17T03:58:27.010Z,0
2016-11-17T03:59:36.261Z,0
2016-11-17T04:00:45.652Z,0
2016-11-17T04:01:55.985Z,0
2016-11-17T04:03:06.324Z,0
2016-11-17T04:04:16.332Z,0
2016-11-17T04:05:26.034Z,0
2016-11-17T04:06:35.737Z,0
2016-11-17T04:07:45.763Z,0
2016-11-17T04:08:55.837Z,0
2016-11-17T04:10:05.859Z,0
2016-11-17T04:11:15.869Z,0
2016-11-17T04:12:26.189Z,0
2016-11-17T04:13:35.954Z,0
2016-11-17T04:14:45.971Z,0
2016-11-17T04:15:55.997Z,0
2016-11-17T04:17:06.462Z,0
2016-11-17T04:18:15.854Z,0
2016-11-17T04:19:26.155Z,0
2016-11-17T04:20:36.572Z,0
2016-11-17T04:21:46.527Z,0
2016-11-17T04:22:56.215Z,0
2016-11-17T04:24:05.609Z,0
2016-11-17T04:25:15.990Z,0
2016-11-17T04:26:26.014Z,0
2016-11-17T04:27:36.095Z,0
2016-11-17T04:28:46.143Z,0
2016-11-17T04:29:55.542Z,0
2016-11-17T04:31:05.299Z,0
2016-11-17T04:32:15.273Z,0
2016-11-17T04:33:25.168Z,0
2016-11-17T04:34:35.544Z,0
2016-11-17T04:35:45.869Z,0
2016-11-17T04:36:55.924Z,0
2016-11-17T04:38:06.294Z,0
2016-11-17T04:39:16.304Z,0
2016-11-17T04:40:26.610Z,0
2016-11-17T04:41:36.718Z,0
2016-11-17T04:42:47.023Z,0
2016-11-17T04:43:57.047Z,0
2016-11-17T04:45:06.185Z,0
2016-11-17T04:46:15.865Z,0
2016-11-17T04:47:26.214Z,0
2016-11-17T04:48:36.046Z,0
2016-11-17T04:49:46.144Z,0
2016-11-17T04:50:56.479Z,0
2016-11-17T04:52:06.503Z,0
2016-11-17T04:53:16.890Z,0
2016-11-17T04:54:26.635Z,0
2016-11-17T04:55:36.637Z,0
2016-11-17T04:56:46.946Z,0
2016-11-17T04:57:56.650Z,0
2016-11-17T04:59:06.342Z,0
2016-11-17T05:00:16.408Z,0
2016-11-17T05:01:26.151Z,0
2016-11-17T05:02:36.481Z,0
2016-11-17T05:03:46.536Z,0
2016-11-17T05:04:56.285Z,0
2016-11-17T05:06:05.981Z,0
2016-11-17T05:07:16.025Z,0
2016-11-17T05:08:26.081Z,0
2016-11-17T05:09:36.145Z,0
2016-11-17T05:10:45.956Z,0
2016-11-17T05:11:55.654Z,0
2016-11-17T05:13:06.085Z,0
2016-11-17T05:14:15.928Z,0
2016-11-17T05:15:25.991Z,0
2016-11-17T05:16:36.011Z,0
2016-11-17T05:17:46.328Z,0
2016-11-17T05:18:55.715Z,0
2016-11-17T05:20:06.136Z,0
2016-11-17T05:21:15.849Z,0
2016-11-17T05:22:25.884Z,0
2016-11-17T05:23:35.885Z,0
2016-11-17T05:24:46.268Z,0
2016-11-17T05:25:56.582Z,0
2016-11-17T05:27:07.085Z,0
2016-11-17T05:28:17.093Z,0
2016-11-17T05:29:26.561Z,0
2016-11-17T05:30:36.300Z,0
2016-11-17T05:31:46.033Z,0
2016-11-17T05:32:55.735Z,0
2016-11-17T05:34:05.457Z,0
2016-11-17T05:35:15.457Z,0
2016-11-17T05:36:25.202Z,0
2016-11-17T05:37:34.928Z,0
2016-11-17T05:38:45.056Z,0
2016-11-17T05:39:55.524Z,0
2016-11-17T05:41:05.907Z,0
2016-11-17T05:42:16.218Z,0
2016-11-17T05:43:25.618Z,0
2016-11-17T05:44:35.368Z,0
2016-11-17T05:45:45.378Z,0
2016-11-17T05:46:55.736Z,0
2016-11-17T05:48:05.824Z,0
2016-11-17T05:49:16.186Z,0
2016-11-17T05:50:25.885Z,0
2016-11-17T05:51:36.352Z,0
2016-11-17T05:52:46.356Z,0
2016-11-17T05:53:56.407Z,0
2016-11-17T05:55:06.524Z,0
2016-11-17T05:56:16.290Z,0
2016-11-17T05:57:26.076Z,0
2016-11-17T05:58:36.078Z,0
2016-11-17T05:59:46.105Z,0
2016-11-17T06:00:56.427Z,0
2016-11-17T06:02:06.459Z,0
2016-11-17T06:03:16.150Z,0
2016-11-17T06:04:26.459Z,0
2016-11-17T06:05:36.548Z,0
2016-11-17T06:06:46.579Z,56
2016-11-17T06:07:56.338Z,56
2016-11-17T06:09:05.728Z,56
2016-11-17T06:10:15.184Z,56
2016-11-17T06:11:24.889Z,52
2016-11-17T06:12:34.878Z,56
2016-11-17T06:13:45.367Z,56
2016-11-17T06:14:56.476Z,56
2016-11-17T06:16:05.879Z,56
2016-11-17T06:17:15.605Z,56
2016-11-17T06:18:25.827Z,60
2016-11-17T06:19:35.647Z,56
2016-11-17T06:20:46.214Z,60
2016-11-17T06:21:58.220Z,56
2016-11-17T06:23:08.466Z,60
2016-11-17T06:24:17.866Z,60
2016-11-17T06:25:28.404Z,60
2016-11-17T06:26:38.623Z,60
2016-11-17T06:27:49.036Z,60
2016-11-17T06:28:59.052Z,4
2016-11-17T06:30:08.826Z,12
2016-11-17T06:31:18.817Z,12
2016-11-17T06:32:28.826Z,16
2016-11-17T06:33:39.180Z,20
2016-11-17T06:34:49.527Z,24
2016-11-17T06:35:59.556Z,28
2016-11-17T06:37:09.266Z,28
2016-11-17T06:38:18.947Z,32
2016-11-17T06:39:28.388Z,24
2016-11-17T06:40:38.108Z,40
2016-11-17T06:41:48.166Z,44
2016-11-17T06:42:58.107Z,64
2016-11-17T06:44:08.432Z,140
2016-11-17T06:45:18.382Z,148
2016-11-17T06:46:28.494Z,168
2016-11-17T06:47:38.554Z,176
2016-11-17T06:48:48.479Z,192
2016-11-17T06:49:58.257Z,208
2016-11-17T06:51:08.264Z,228
2016-11-17T06:52:18.522Z,240
2016-11-17T06:53:28.224Z,260
2016-11-17T06:54:37.932Z,276
2016-11-17T06:55:47.867Z,300
2016-11-17T06:56:58.228Z,332
2016-11-17T06:58:08.345Z,368
2016-11-17T06:59:18.681Z,404
2016-11-17T07:00:28.767Z,436
2016-11-17T07:01:38.569Z,472
2016-11-17T07:02:48.716Z,520
2016-11-17T07:03:59.089Z,552
2016-11-17T07:05:09.145Z,584
2016-11-17T07:06:19.218Z,632
2016-11-17T07:07:28.901Z,664
2016-11-17T07:08:38.145Z,696
2016-11-17T07:09:48.185Z,732
2016-11-17T07:10:58.248Z,716
2016-11-17T07:12:08.281Z,756
2016-11-17T07:13:17.676Z,820
2016-11-17T07:14:27.704Z,944
2016-11-17T07:15:37.398Z,992
2016-11-17T07:16:47.720Z,1000
2016-11-17T07:17:57.419Z,1008
2016-11-17T07:19:07.446Z,1080
2016-11-17T07:20:17.553Z,1120
2016-11-17T07:21:26.956Z,1128
2016-11-17T07:22:36.671Z,1152
2016-11-17T07:23:46.398Z,1184
2016-11-17T07:24:56.919Z,1204
2016-11-17T07:26:06.823Z,1224
2016-11-17T07:27:17.120Z,1256
2016-11-17T07:28:26.902Z,1284
2016-11-17T07:29:37.201Z,1328
2016-11-17T07:30:47.423Z,1368
2016-11-17T07:31:57.132Z,1400
2016-11-17T07:33:07.474Z,1412
2016-11-17T07:34:17.795Z,1448
2016-11-17T07:35:28.154Z,1508
2016-11-17T07:36:38.190Z,1516
2016-11-17T07:37:48.203Z,1588
2016-11-17T07:38:57.955Z,1744
2016-11-17T07:40:07.996Z,1928
2016-11-17T07:41:18.004Z,1996
2016-11-17T07:42:28.027Z,1972
2016-11-17T07:43:38.052Z,1916
2016-11-17T07:44:48.123Z,1892
2016-11-17T07:45:58.454Z,1872
2016-11-17T07:47:07.866Z,1856
2016-11-17T07:48:17.961Z,1848
2016-11-17T07:49:28.412Z,1868
2016-11-17T07:50:38.427Z,1880
2016-11-17T07:51:48.422Z,1892
2016-11-17T07:52:58.151Z,1880
2016-11-17T07:54:07.935Z,1884
2016-11-17T07:55:18.255Z,1884
2016-11-17T07:56:27.646Z,1856
2016-11-17T07:57:37.724Z,1832
2016-11-17T07:58:48.215Z,1876
2016-11-17T07:59:58.565Z,1932
2016-11-17T08:01:08.286Z,2012
2016-11-17T08:02:17.684Z,2160
2016-11-17T08:03:27.460Z,2460
2016-11-17T08:04:37.185Z,2832
2016-11-17T08:05:47.193Z,3068
2016-11-17T08:06:57.323Z,3072
2016-11-17T08:08:07.663Z,3264
2016-11-17T08:09:17.668Z,3460
2016-11-17T08:10:27.899Z,3424
2016-11-17T08:11:38.204Z,3476
2016-11-17T08:12:48.305Z,3384
2016-11-17T08:13:58.038Z,3428
2016-11-17T08:15:08.453Z,3396
2016-11-17T08:16:18.166Z,3152
2016-11-17T08:17:27.865Z,2812
2016-11-17T08:18:38.233Z,2676
2016-11-17T08:19:48.249Z,2576
2016-11-17T08:20:58.633Z,2472
2016-11-17T08:22:09.058Z,2420
2016-11-17T08:23:19.106Z,2344
2016-11-17T08:24:28.608Z,2440
2016-11-17T08:25:38.890Z,2476
2016-11-17T08:26:48.964Z,2636
2016-11-17T08:27:59.336Z,2636
2016-11-17T08:29:09.055Z,2740
2016-11-17T08:30:19.363Z,2836
2016-11-17T08:31:29.372Z,2964
2016-11-17T08:32:39.282Z,3008
2016-11-17T08:33:49.339Z,2780
2016-11-17T08:34:58.984Z,2776
2016-11-17T08:36:08.765Z,2904
2016-11-17T08:37:18.774Z,2960
2016-11-17T08:38:28.822Z,3044
2016-11-17T08:39:38.958Z,2980
2016-11-17T08:40:49.403Z,2732
2016-11-17T08:41:59.716Z,2664
2016-11-17T08:43:09.533Z,2624
2016-11-17T08:44:19.397Z,2688
2016-11-17T08:45:29.746Z,2752
2016-11-17T08:46:39.145Z,2956
2016-11-17T08:47:49.030Z,3016
2016-11-17T08:48:58.733Z,3108
2016-11-17T08:50:09.180Z,3540
2016-11-17T08:51:18.871Z,3500
2016-11-17T08:52:28.682Z,3532
2016-11-17T08:53:39.113Z,3776
2016-11-17T08:54:49.161Z,3948
2016-11-17T08:55:58.936Z,4380
2016-11-17T08:57:09.078Z,4716
2016-11-17T08:58:19.480Z,4764
2016-11-17T08:59:30.035Z,5304
2016-11-17T09:00:40.044Z,5576
2016-11-17T09:01:49.792Z,5632
2016-11-17T09:03:00.085Z,5188
2016-11-17T09:04:10.402Z,5464
2016-11-17T09:05:20.411Z,5740
2016-11-17T09:06:30.494Z,5740
2016-11-17T09:07:40.304Z,5816
2016-11-17T09:08:50.318Z,5480
2016-11-17T09:09:59.459Z,6288
2016-11-17T09:11:09.473Z,6068
2016-11-17T09:12:19.469Z,4764
2016-11-17T09:13:29.511Z,4124
2016-11-17T09:14:39.929Z,4200
2016-11-17T09:15:49.443Z,3912
2016-11-17T09:16:59.492Z,4344
2016-11-17T09:18:09.517Z,4940
2016-11-17T09:19:19.301Z,5576
2016-11-17T09:20:29.620Z,5948
2016-11-17T09:21:39.118Z,5948
2016-11-17T09:22:49.138Z,5592
2016-11-17T09:23:59.236Z,5360
2016-11-17T09:25:09.010Z,5092
2016-11-17T09:26:19.113Z,5196
2016-11-17T09:27:28.632Z,4612
2016-11-17T09:28:38.647Z,4516
2016-11-17T09:29:48.652Z,4128
2016-11-17T09:30:58.657Z,4140
2016-11-17T09:32:08.985Z,4080
2016-11-17T09:33:19.140Z,3824
2016-11-17T09:34:28.888Z,3624
2016-11-17T09:35:38.610Z,3612
2016-11-17T09:36:48.927Z,3788
2016-11-17T09:37:58.623Z,3576
2016-11-17T09:39:08.318Z,3580
2016-11-17T09:40:18.826Z,3524
2016-11-17T09:41:29.142Z,3408
2016-11-17T09:42:38.950Z,3308
2016-11-17T09:43:48.972Z,3536
2016-11-17T09:44:59.269Z,3452
2016-11-17T09:46:09.114Z,3436
2016-11-17T09:47:18.807Z,3460
2016-11-17T09:48:28.588Z,3416
2016-11-17T09:49:38.629Z,3612
2016-11-17T09:50:48.319Z,3676
2016-11-17T09:51:58.330Z,3672
2016-11-17T09:53:08.040Z,3632
2016-11-17T09:54:18.740Z,3548
2016-11-17T09:55:28.432Z,3584
2016-11-17T09:56:38.553Z,3648
2016-11-17T09:57:48.559Z,3676
2016-11-17T09:58:58.620Z,3688
2016-11-17T10:00:08.711Z,3696
2016-11-17T10:01:18.754Z,3724
2016-11-17T10:02:29.134Z,3704
2016-11-17T10:03:38.590Z,3672
2016-11-17T10:04:48.653Z,3660
2016-11-17T10:05:58.800Z,3664
2016-11-17T10:07:08.573Z,3676
2016-11-17T10:08:18.576Z,3676
2016-11-17T10:09:28.627Z,3656
2016-11-17T10:10:38.959Z,3660
2016-11-17T10:11:48.969Z,3652
2016-11-17T10:12:58.740Z,3676
2016-11-17T10:14:08.759Z,3436
2016-11-17T10:15:19.170Z,3436
2016-11-17T10:16:29.484Z,3596
2016-11-17T10:17:39.894Z,3872
2016-11-17T10:18:49.334Z,3920
2016-11-17T10:19:59.097Z,4856
2016-11-17T10:21:09.438Z,5492
2016-11-17T10:22:18.834Z,5684
2016-11-17T10:23:28.873Z,6260
2016-11-17T10:24:38.891Z,6708
2016-11-17T10:25:48.881Z,6796
2016-11-17T10:26:58.951Z,6228
2016-11-17T10:28:08.763Z,5132
2016-11-17T10:29:19.104Z,5580
2016-11-17T10:30:29.095Z,6476
2016-11-17T10:31:38.893Z,7400
2016-11-17T10:32:48.614Z,7588
2016-11-17T10:33:58.780Z,7340
2016-11-17T10:35:08.795Z,6832
2016-11-17T10:36:19.264Z,6724
2016-11-17T10:37:28.974Z,6760
2016-11-17T10:38:39.300Z,6488
2016-11-17T10:39:49.627Z,5952
2016-11-17T10:40:59.884Z,5864
2016-11-17T10:42:09.395Z,6192
2016-11-17T10:43:20.013Z,6444
2016-11-17T10:44:30.023Z,6444
2016-11-17T10:45:40.065Z,5704
2016-11-17T10:46:50.111Z,5048
2016-11-17T10:48:00.183Z,4808
2016-11-17T10:49:09.964Z,4476
2016-11-17T10:50:20.061Z,4396
2016-11-17T10:51:30.623Z,4272
2016-11-17T10:52:40.635Z,4388
2016-11-17T10:53:50.356Z,4324
2016-11-17T10:55:00.795Z,4364
2016-11-17T10:56:10.247Z,4124
2016-11-17T10:57:20.578Z,4064
2016-11-17T10:58:30.292Z,4420
2016-11-17T10:59:40.097Z,4872
2016-11-17T11:00:50.444Z,4084
2016-11-17T11:02:00.476Z,3096
2016-11-17T11:03:10.606Z,2844
2016-11-17T11:04:20.324Z,3148
2016-11-17T11:05:30.144Z,3708
2016-11-17T11:06:39.836Z,3924
2016-11-17T11:07:49.691Z,3612
2016-11-17T11:08:59.754Z,3512
2016-11-17T11:10:10.062Z,3604
2016-11-17T11:11:19.461Z,3380
2016-11-17T11:12:29.784Z,3464
2016-11-17T11:13:40.142Z,3788
2016-11-17T11:14:49.535Z,4072
2016-11-17T11:16:00.121Z,4024
2016-11-17T11:17:10.157Z,4064
2016-11-17T11:18:20.085Z,4236
2016-11-17T11:19:29.867Z,4552
2016-11-17T11:20:40.276Z,4952
2016-11-17T11:21:50.293Z,5076
2016-11-17T11:23:00.419Z,5252
2016-11-17T11:24:10.124Z,5572
2016-11-17T11:25:20.142Z,5624
2016-11-17T11:26:30.594Z,6032
2016-11-17T11:27:40.912Z,7408
2016-11-17T11:28:51.060Z,8304
2016-11-17T11:30:01.155Z,8736
2016-11-17T11:31:11.488Z,8400
2016-11-17T11:32:21.612Z,7288
2016-11-17T11:33:31.926Z,6240
2016-11-17T11:34:41.645Z,6076
2016-11-17T11:35:51.021Z,5824
2016-11-17T11:37:01.054Z,6096
2016-11-17T11:38:11.055Z,6272
2016-11-17T11:39:20.147Z,5904
2016-11-17T11:40:29.966Z,6172
2016-11-17T11:41:40.218Z,6824
2016-11-17T11:42:50.322Z,6148
2016-11-17T11:43:59.711Z,6120
2016-11-17T11:45:10.024Z,6204
2016-11-17T11:46:20.491Z,5512
2016-11-17T11:47:30.808Z,4804
2016-11-17T11:48:40.274Z,4352
2016-11-17T11:49:50.079Z,4016
2016-11-17T11:50:59.786Z,4176
2016-11-17T11:52:10.446Z,4408
2016-11-17T11:53:20.528Z,5268
2016-11-17T11:54:30.534Z,6796
2016-11-17T11:55:40.669Z,9048
2016-11-17T11:56:50.695Z,8912
2016-11-17T11:58:00.716Z,10372
2016-11-17T11:59:10.430Z,9012
2016-11-17T12:00:20.478Z,7824
2016-11-17T12:01:30.078Z,5344
2016-11-17T12:02:39.816Z,5192
2016-11-17T12:03:49.527Z,6080
2016-11-17T12:04:59.379Z,5592
2016-11-17T12:06:09.418Z,5624
2016-11-17T12:07:19.117Z,6204
2016-11-17T12:08:28.813Z,6480
2016-11-17T12:09:38.602Z,6276
2016-11-17T12:10:48.314Z,5616
2016-11-17T12:11:58.655Z,5912
2016-11-17T12:13:08.780Z,5932
2016-11-17T12:14:18.889Z,6204
2016-11-17T12:15:29.031Z,6376
2016-11-17T12:16:38.838Z,6532
2016-11-17T12:17:49.177Z,6480
2016-11-17T12:18:59.224Z,6320
2016-11-17T12:20:09.540Z,6368
2016-11-17T12:21:19.265Z,6364
2016-11-17T12:22:28.351Z,6728
2016-11-17T12:23:38.366Z,6984
2016-11-17T12:24:48.508Z,7016
2016-11-17T12:25:58.228Z,8380
2016-11-17T12:27:08.542Z,7296
2016-11-17T12:28:18.192Z,5780
2016-11-17T12:29:28.204Z,5700
2016-11-17T12:30:38.576Z,5204
2016-11-17T12:31:48.366Z,4912
2016-11-17T12:32:58.704Z,4764
2016-11-17T12:34:08.460Z,4760
2016-11-17T12:35:18.172Z,4632
2016-11-17T12:36:27.875Z,4412
2016-11-17T12:37:38.226Z,4256
2016-11-17T12:38:48.648Z,4040
2016-11-17T12:39:58.989Z,3728
2016-11-17T12:41:08.698Z,3520
2016-11-17T12:42:18.440Z,3564
2016-11-17T12:43:28.760Z,3740
2016-11-17T12:44:39.070Z,4112
2016-11-17T12:45:48.932Z,4504
2016-11-17T12:46:58.940Z,4536
2016-11-17T12:48:08.646Z,4812
2016-11-17T12:49:18.326Z,5636
2016-11-17T12:50:28.383Z,6736
2016-11-17T12:51:38.696Z,7668
2016-11-17T12:52:48.847Z,7476
2016-11-17T12:53:58.841Z,7024
2016-11-17T12:55:08.929Z,6676
2016-11-17T12:56:19.237Z,6204
2016-11-17T12:57:29.385Z,6108
2016-11-17T12:58:39.408Z,5932
2016-11-17T12:59:49.779Z,5388
2016-11-17T13:00:59.827Z,4812
2016-11-17T13:02:09.547Z,4332
2016-11-17T13:03:19.557Z,4108
2016-11-17T13:04:29.568Z,4076
2016-11-17T13:05:39.911Z,4124
2016-11-17T13:06:50.253Z,4228
2016-11-17T13:08:00.730Z,4368
2016-11-17T13:09:10.448Z,4548
2016-11-17T13:10:20.775Z,4864
2016-11-17T13:11:30.789Z,5056
2016-11-17T13:12:40.829Z,5180
2016-11-17T13:13:50.543Z,5308
2016-11-17T13:15:00.868Z,5712
2016-11-17T13:16:10.991Z,6376
2016-11-17T13:17:21.013Z,6872
2016-11-17T13:18:31.030Z,5928
2016-11-17T13:19:41.039Z,5164
2016-11-17T13:20:51.399Z,4488
2016-11-17T13:22:01.447Z,4380
2016-11-17T13:23:11.185Z,4536
2016-11-17T13:24:21.489Z,4444
2016-11-17T13:25:31.209Z,4352
2016-11-17T13:26:41.269Z,4116
2016-11-17T13:27:51.097Z,3816
2016-11-17T13:29:01.106Z,3520
2016-11-17T13:30:11.428Z,3424
2016-11-17T13:31:21.858Z,3608
2016-11-17T13:32:31.644Z,3868
2016-11-17T13:33:41.956Z,4020
2016-11-17T13:34:52.344Z,4232
2016-11-17T13:36:02.407Z,4248
2016-11-17T13:37:12.788Z,4092
2016-11-17T13:38:23.122Z,4140
2016-11-17T13:39:33.658Z,3944
2016-11-17T13:40:43.659Z,4044
2016-11-17T13:41:53.473Z,4028
2016-11-17T13:43:03.886Z,3968
2016-11-17T13:44:14.252Z,3748
2016-11-17T13:45:24.380Z,3656
2016-11-17T13:46:34.409Z,3620
2016-11-17T13:47:44.751Z,3600
2016-11-17T13:48:55.101Z,3488
2016-11-17T13:50:05.118Z,3680
2016-11-17T13:51:15.232Z,3592
2016-11-17T13:52:25.572Z,3340
2016-11-17T13:53:36.126Z,3292
2016-11-17T13:54:46.161Z,3324
2016-11-17T13:55:56.273Z,3212
2016-11-17T13:57:06.343Z,3160
2016-11-17T13:58:16.657Z,3112
2016-11-17T13:59:27.066Z,3148
2016-11-17T14:00:37.081Z,3300
2016-11-17T14:01:47.242Z,3436
2016-11-17T14:02:57.262Z,3376
2016-11-17T14:04:07.281Z,3236
2016-11-17T14:05:17.310Z,3160
2016-11-17T14:06:27.710Z,3136
2016-11-17T14:07:37.423Z,3180
2016-11-17T14:08:47.390Z,3156
2016-11-17T14:09:57.406Z,3080
2016-11-17T14:11:07.741Z,3104
2016-11-17T14:12:17.772Z,3140
2016-11-17T14:13:28.097Z,2924
2016-11-17T14:14:38.129Z,2684
2016-11-17T14:15:48.433Z,2612
2016-11-17T14:16:58.599Z,2744
2016-11-17T14:18:08.979Z,2688
2016-11-17T14:19:19.292Z,2612
2016-11-17T14:20:29.744Z,2628
2016-11-17T14:21:39.773Z,2736
2016-11-17T14:22:49.791Z,2652
2016-11-17T14:23:59.620Z,2424
2016-11-17T14:25:09.980Z,2192
2016-11-17T14:26:20.390Z,1996
2016-11-17T14:27:30.722Z,1892
2016-11-17T14:28:40.228Z,1836
2016-11-17T14:29:50.238Z,1804
2016-11-17T14:31:00.374Z,1788
2016-11-17T14:32:09.496Z,1804
2016-11-17T14:33:19.620Z,1828
2016-11-17T14:34:29.939Z,1836
2016-11-17T14:35:39.943Z,1832
2016-11-17T14:36:49.316Z,1840
2016-11-17T14:37:59.020Z,1816
2016-11-17T14:39:09.049Z,1784
2016-11-17T14:40:19.379Z,1748
2016-11-17T14:41:29.693Z,1688
2016-11-17T14:42:39.806Z,1672
2016-11-17T14:43:49.842Z,1648
2016-11-17T14:44:59.400Z,1576
2016-11-17T14:46:09.480Z,1520
2016-11-17T14:47:19.897Z,1476
2016-11-17T14:48:30.220Z,1460
2016-11-17T14:49:40.672Z,1440
2016-11-17T14:50:51.028Z,1380
2016-11-17T14:52:01.158Z,1344
2016-11-17T14:53:11.145Z,1308
2016-11-17T14:54:20.951Z,1268
2016-11-17T14:55:31.652Z,1228
2016-11-17T14:56:41.772Z,1196
2016-11-17T14:57:52.069Z,1164
2016-11-17T14:59:01.458Z,1128
2016-11-17T15:00:11.826Z,1092
2016-11-17T15:01:21.691Z,1056
2016-11-17T15:02:31.700Z,1016
2016-11-17T15:03:42.060Z,980
2016-11-17T15:04:52.596Z,936
2016-11-17T15:06:02.605Z,896
2016-11-17T15:07:12.312Z,856
2016-11-17T15:08:21.719Z,808
2016-11-17T15:09:32.055Z,760
2016-11-17T15:10:42.094Z,712
2016-11-17T15:11:52.116Z,684
2016-11-17T15:13:02.455Z,624
2016-11-17T15:14:12.165Z,604
2016-11-17T15:15:22.207Z,520
2016-11-17T15:16:32.575Z,492
2016-11-17T15:17:42.921Z,460
2016-11-17T15:18:53.299Z,428
2016-11-17T15:20:03.327Z,392
2016-11-17T15:21:13.051Z,364
2016-11-17T15:22:23.073Z,340
2016-11-17T15:23:33.108Z,308
2016-11-17T15:24:43.430Z,280
2016-11-17T15:25:53.756Z,252
2016-11-17T15:27:04.400Z,228
2016-11-17T15:28:14.746Z,204
2016-11-17T15:29:24.778Z,180
2016-11-17T15:30:34.808Z,160
2016-11-17T15:31:44.529Z,140
2016-11-17T15:32:54.621Z,128
2016-11-17T15:34:04.751Z,112
2016-11-17T15:35:15.160Z,96
2016-11-17T15:36:25.296Z,84
2016-11-17T15:37:35.459Z,76
2016-11-17T15:38:45.463Z,64
2016-11-17T15:39:55.788Z,56
2016-11-17T15:41:05.840Z,44
2016-11-17T15:42:16.193Z,40
2016-11-17T15:43:25.970Z,32
2016-11-17T15:44:36.295Z,24
2016-11-17T15:45:46.351Z,24
2016-11-17T15:46:56.383Z,20
2016-11-17T15:48:06.525Z,16
2016-11-17T15:49:17.001Z,12
2016-11-17T15:50:27.319Z,12
2016-11-17T15:51:37.717Z,12
2016-11-17T15:52:48.069Z,4
2016-11-17T15:53:58.409Z,4
2016-11-17T15:55:08.823Z,8
2016-11-17T15:56:19.358Z,4
2016-11-17T15:57:29.331Z,0
2016-11-17T15:58:39.398Z,4
2016-11-17T15:59:49.726Z,4
2016-11-17T16:00:59.448Z,0
2016-11-17T16:02:09.777Z,0
2016-11-17T16:03:19.628Z,0
2016-11-17T16:04:30.059Z,0
2016-11-17T16:05:40.397Z,0
2016-11-17T16:06:50.426Z,0
2016-11-17T16:08:00.888Z,0
2016-11-17T16:09:10.282Z,0
2016-11-17T16:10:19.965Z,0
2016-11-17T16:11:30.300Z,0
2016-11-17T16:12:40.334Z,0
2016-11-17T16:13:50.778Z,0
2016-11-17T16:15:00.837Z,0
2016-11-17T16:16:11.229Z,0
2016-11-17T16:17:21.370Z,0